sensor_id;sensor_type;location;lat;lon;timestamp;temperature;humidity
38458;DHT22;24239;48.058;10.486;2023-03-01T03:33:00;-0.60;99.90
38458;DHT22;24239;48.058;10.486;2023-03-01T03:35:27;-0.60;99.90
38458;DHT22;24239;48.058;10.486;2023-03-01T03:37:55;0.00;99.90
38458;DHT22;24239;48.058;10.486;2023-03-01T03:40:29;-0.50;99.90
38458;DHT22;24239;48.058;10.486;2023-03-01T03:42:55;-0.50;99.90
38458;DHT22;24239;48.058;10.486;2023-03-01T03:45:21;-0.60;99.90
38458;DHT22;24239;48.058;10.486;2023-03-01T03:47:46;-0.60;99.90
38458;DHT22;24239;48.058;10.486;2023-03-01T03:50:13;-0.50;99.90
38458;DHT22;24239;48.058;10.486;2023-03-01T03:52:39;-0.60;99.90
38458;DHT22;24239;48.058;10.486;2023-03-01T03:55:08;-0.60;99.90
38458;DHT22;24239;48.058;10.486;2023-03-01T03:57:36;-0.60;99.90
38458;DHT22;24239;48.058;10.486;2023-03-01T04:00:02;-0.70;99.90
38458;DHT22;24239;48.058;10.486;2023-03-01T04:02:30;-0.60;99.90
38458;DHT22;24239;48.058;10.486;2023-03-01T04:04:56;-0.60;99.90
38458;DHT22;24239;48.058;10.486;2023-03-01T04:07:22;-0.40;99.90
38458;DHT22;24239;48.058;10.486;2023-03-01T04:09:48;-0.50;99.90
38458;DHT22;24239;48.058;10.486;2023-03-01T04:12:13;-0.50;99.90
38458;DHT22;24239;48.058;10.486;2023-03-01T04:14:40;-0.60;99.90
38458;DHT22;24239;48.058;10.486;2023-03-01T04:17:05;-0.60;99.90
38458;DHT22;24239;48.058;10.486;2023-03-01T04:19:31;-0.60;99.90
38458;DHT22;24239;48.058;10.486;2023-03-01T04:22:02;-0.60;99.90
38458;DHT22;24239;48.058;10.486;2023-03-01T04:24:33;-0.70;99.90
38458;DHT22;24239;48.058;10.486;2023-03-01T04:27:01;-0.70;99.90
38458;DHT22;24239;48.058;10.486;2023-03-01T04:29:27;-0.50;99.90
38458;DHT22;24239;48.058;10.486;2023-03-01T04:31:53;-1.00;99.90
38458;DHT22;24239;48.058;10.486;2023-03-01T04:34:19;-0.50;99.90
38458;DHT22;24239;48.058;10.486;2023-03-01T04:36:44;-0.70;99.90
38458;DHT22;24239;48.058;10.486;2023-03-01T04:39:10;-0.30;99.90
38458;DHT22;24239;48.058;10.486;2023-03-01T04:41:39;-0.60;99.90
38458;DHT22;24239;48.058;10.486;2023-03-01T04:44:14;-0.30;99.90
38458;DHT22;24239;48.058;10.486;2023-03-01T04:46:40;-0.40;99.90
38458;DHT22;24239;48.058;10.486;2023-03-01T04:49:11;-0.70;99.90
38458;DHT22;24239;48.058;10.486;2023-03-01T05:01:24;-0.40;99.90
38458;DHT22;24239;48.058;10.486;2023-03-01T05:03:53;-0.70;99.90
38458;DHT22;24239;48.058;10.486;2023-03-01T05:06:19;-0.70;99.90
38458;DHT22;24239;48.058;10.486;2023-03-01T05:08:48;-0.70;99.90
38458;DHT22;24239;48.058;10.486;2023-03-01T05:11:29;-0.50;99.90
38458;DHT22;24239;48.058;10.486;2023-03-01T05:14:02;-1.10;99.90
38458;DHT22;24239;48.058;10.486;2023-03-01T05:16:28;-0.50;99.90
38458;DHT22;24239;48.058;10.486;2023-03-01T05:18:56;-0.70;99.90
38458;DHT22;24239;48.058;10.486;2023-03-01T05:21:22;-0.30;99.90
38458;DHT22;24239;48.058;10.486;2023-03-01T05:23:48;-0.60;99.90
38458;DHT22;24239;48.058;10.486;2023-03-01T05:26:14;-0.70;99.90
38458;DHT22;24239;48.058;10.486;2023-03-01T05:28:43;-0.60;99.90
38458;DHT22;24239;48.058;10.486;2023-03-01T05:31:09;-0.60;99.90
38458;DHT22;24239;48.058;10.486;2023-03-01T05:33:36;-0.70;99.90
38458;DHT22;24239;48.058;10.486;2023-03-01T05:36:02;-0.60;99.90
38458;DHT22;24239;48.058;10.486;2023-03-01T05:38:28;-0.70;99.90
38458;DHT22;24239;48.058;10.486;2023-03-01T05:40:53;-0.50;99.90
38458;DHT22;24239;48.058;10.486;2023-03-01T05:43:22;-0.60;99.90
38458;DHT22;24239;48.058;10.486;2023-03-01T05:45:51;-0.60;99.90
38458;DHT22;24239;48.058;10.486;2023-03-01T05:48:17;-0.50;99.90
38458;DHT22;24239;48.058;10.486;2023-03-01T05:50:45;-0.70;99.90
38458;DHT22;24239;48.058;10.486;2023-03-01T05:53:16;-0.80;99.90
38458;DHT22;24239;48.058;10.486;2023-03-01T05:55:42;-0.80;99.90
38458;DHT22;24239;48.058;10.486;2023-03-01T05:58:09;-0.50;99.90
38458;DHT22;24239;48.058;10.486;2023-03-01T06:00:35;-0.50;99.90
38458;DHT22;24239;48.058;10.486;2023-03-01T06:03:01;-0.50;99.90
38458;DHT22;24239;48.058;10.486;2023-03-01T06:08:45;-0.70;99.90
38458;DHT22;24239;48.058;10.486;2023-03-01T06:11:14;-0.80;99.90
38458;DHT22;24239;48.058;10.486;2023-03-01T06:16:43;-0.90;99.90
38458;DHT22;24239;48.058;10.486;2023-03-01T06:28:53;-0.90;99.90
38458;DHT22;24239;48.058;10.486;2023-03-01T06:31:21;-0.90;99.90
38458;DHT22;24239;48.058;10.486;2023-03-01T06:33:47;-0.90;99.90
38458;DHT22;24239;48.058;10.486;2023-03-01T06:36:12;-0.70;99.90
38458;DHT22;24239;48.058;10.486;2023-03-01T06:38:38;-0.80;99.90
38458;DHT22;24239;48.058;10.486;2023-03-01T06:41:08;-0.90;99.90
38458;DHT22;24239;48.058;10.486;2023-03-01T06:43:34;-0.80;99.90
38458;DHT22;24239;48.058;10.486;2023-03-01T06:46:00;-0.60;99.90
38458;DHT22;24239;48.058;10.486;2023-03-01T06:48:26;-0.70;99.90
38458;DHT22;24239;48.058;10.486;2023-03-01T06:50:52;-0.90;99.90
38458;DHT22;24239;48.058;10.486;2023-03-01T06:53:17;-0.80;99.90
38458;DHT22;24239;48.058;10.486;2023-03-01T06:55:43;-0.60;99.90
38458;DHT22;24239;48.058;10.486;2023-03-01T06:58:09;-0.90;99.90
38458;DHT22;24239;48.058;10.486;2023-03-01T07:00:42;-0.70;99.90
38458;DHT22;24239;48.058;10.486;2023-03-01T07:03:08;-0.90;99.90
38458;DHT22;24239;48.058;10.486;2023-03-01T07:05:34;-0.90;99.90
38458;DHT22;24239;48.058;10.486;2023-03-01T07:08:00;-0.90;99.90
38458;DHT22;24239;48.058;10.486;2023-03-01T07:10:26;-0.90;99.90
38458;DHT22;24239;48.058;10.486;2023-03-01T07:12:55;-0.80;99.90
38458;DHT22;24239;48.058;10.486;2023-03-01T07:15:21;-0.90;99.90
38458;DHT22;24239;48.058;10.486;2023-03-01T07:17:47;-0.70;99.90
38458;DHT22;24239;48.058;10.486;2023-03-01T07:20:15;-1.00;99.90
38458;DHT22;24239;48.058;10.486;2023-03-01T07:22:41;-1.00;99.90
38458;DHT22;24239;48.058;10.486;2023-03-01T07:25:10;-0.80;99.90
38458;DHT22;24239;48.058;10.486;2023-03-01T07:27:36;-0.40;99.90
38458;DHT22;24239;48.058;10.486;2023-03-01T07:30:02;-0.90;99.90
38458;DHT22;24239;48.058;10.486;2023-03-01T07:32:28;-1.00;99.90
38458;DHT22;24239;48.058;10.486;2023-03-01T07:34:56;-1.00;99.90
38458;DHT22;24239;48.058;10.486;2023-03-01T07:37:22;-0.70;99.90
38458;DHT22;24239;48.058;10.486;2023-03-01T07:39:48;-0.90;99.90
38458;DHT22;24239;48.058;10.486;2023-03-01T07:42:14;-1.00;99.90
38458;DHT22;24239;48.058;10.486;2023-03-01T07:44:39;-1.00;99.90
38458;DHT22;24239;48.058;10.486;2023-03-01T07:47:05;-1.00;99.90
38458;DHT22;24239;48.058;10.486;2023-03-01T07:49:31;-1.00;99.90
38458;DHT22;24239;48.058;10.486;2023-03-01T07:51:57;-1.00;99.90
38458;DHT22;24239;48.058;10.486;2023-03-01T07:54:23;-0.80;99.90
38458;DHT22;24239;48.058;10.486;2023-03-01T07:56:48;-0.70;99.90
38458;DHT22;24239;48.058;10.486;2023-03-01T07:59:14;-0.50;99.90
38458;DHT22;24239;48.058;10.486;2023-03-01T08:01:43;-0.80;99.90
38458;DHT22;24239;48.058;10.486;2023-03-01T08:04:09;-0.80;99.90
38458;DHT22;24239;48.058;10.486;2023-03-01T08:06:36;-0.80;99.90
38458;DHT22;24239;48.058;10.486;2023-03-01T08:09:02;-0.70;99.90
38458;DHT22;24239;48.058;10.486;2023-03-01T08:11:31;-0.50;99.90
38458;DHT22;24239;48.058;10.486;2023-03-01T08:13:57;-0.80;99.90
38458;DHT22;24239;48.058;10.486;2023-03-01T08:16:25;-0.80;99.90
38458;DHT22;24239;48.058;10.486;2023-03-01T08:18:50;-0.60;99.90
38458;DHT22;24239;48.058;10.486;2023-03-01T08:21:17;-0.60;99.90
38458;DHT22;24239;48.058;10.486;2023-03-01T08:23:43;-0.50;99.90
38458;DHT22;24239;48.058;10.486;2023-03-01T08:26:10;-0.60;99.90
38458;DHT22;24239;48.058;10.486;2023-03-01T08:28:36;-0.50;99.90
38458;DHT22;24239;48.058;10.486;2023-03-01T08:31:12;-0.50;99.90
38458;DHT22;24239;48.058;10.486;2023-03-01T08:33:44;-0.40;99.90
38458;DHT22;24239;48.058;10.486;2023-03-01T08:36:10;-0.60;99.90
38458;DHT22;24239;48.058;10.486;2023-03-01T08:38:35;-0.50;99.90
38458;DHT22;24239;48.058;10.486;2023-03-01T08:41:02;-0.30;99.90
38458;DHT22;24239;48.058;10.486;2023-03-01T08:43:31;-0.30;99.90
38458;DHT22;24239;48.058;10.486;2023-03-01T08:45:57;-0.20;99.90
38458;DHT22;24239;48.058;10.486;2023-03-01T08:48:22;-0.30;99.90
38458;DHT22;24239;48.058;10.486;2023-03-01T08:50:51;-0.20;99.90
38458;DHT22;24239;48.058;10.486;2023-03-01T08:53:17;-0.10;99.90
38458;DHT22;24239;48.058;10.486;2023-03-01T08:55:43;-0.10;99.90
38458;DHT22;24239;48.058;10.486;2023-03-01T08:58:08;0.60;99.90
38458;DHT22;24239;48.058;10.486;2023-03-01T09:00:37;0.40;99.90
38458;DHT22;24239;48.058;10.486;2023-03-01T09:03:02;0.00;99.90
38458;DHT22;24239;48.058;10.486;2023-03-01T09:05:30;0.00;99.90
38458;DHT22;24239;48.058;10.486;2023-03-01T09:07:56;0.00;99.90
38458;DHT22;24239;48.058;10.486;2023-03-01T09:10:22;0.00;99.90
38458;DHT22;24239;48.058;10.486;2023-03-01T09:12:48;-0.10;99.90
38458;DHT22;24239;48.058;10.486;2023-03-01T09:15:13;0.00;99.90
38458;DHT22;24239;48.058;10.486;2023-03-01T09:17:39;0.00;99.90
38458;DHT22;24239;48.058;10.486;2023-03-01T09:20:05;0.00;99.90
38458;DHT22;24239;48.058;10.486;2023-03-01T09:22:33;-0.10;99.90
38458;DHT22;24239;48.058;10.486;2023-03-01T09:24:58;0.50;99.90
38458;DHT22;24239;48.058;10.486;2023-03-01T09:27:24;0.10;99.90
38458;DHT22;24239;48.058;10.486;2023-03-01T09:29:50;0.10;99.90
38458;DHT22;24239;48.058;10.486;2023-03-01T09:32:16;0.20;99.90
38458;DHT22;24239;48.058;10.486;2023-03-01T09:34:44;0.00;99.90
38458;DHT22;24239;48.058;10.486;2023-03-01T09:37:28;0.10;99.90
38458;DHT22;24239;48.058;10.486;2023-03-01T09:39:54;0.10;99.90
38458;DHT22;24239;48.058;10.486;2023-03-01T09:42:19;0.10;99.90
38458;DHT22;24239;48.058;10.486;2023-03-01T09:47:14;0.20;99.90
38458;DHT22;24239;48.058;10.486;2023-03-01T09:49:41;0.20;99.90
38458;DHT22;24239;48.058;10.486;2023-03-01T09:54:49;0.30;99.90
38458;DHT22;24239;48.058;10.486;2023-03-01T09:57:36;0.20;99.90
38458;DHT22;24239;48.058;10.486;2023-03-01T10:10:06;0.20;99.90
38458;DHT22;24239;48.058;10.486;2023-03-01T10:12:34;0.30;99.90
38458;DHT22;24239;48.058;10.486;2023-03-01T10:15:19;0.40;99.90
38458;DHT22;24239;48.058;10.486;2023-03-01T10:17:47;0.30;99.90
38458;DHT22;24239;48.058;10.486;2023-03-01T10:20:24;0.40;99.90
38458;DHT22;24239;48.058;10.486;2023-03-01T10:22:50;0.50;99.90
38458;DHT22;24239;48.058;10.486;2023-03-01T10:25:23;0.50;99.90
38458;DHT22;24239;48.058;10.486;2023-03-01T10:27:59;0.40;99.90
38458;DHT22;24239;48.058;10.486;2023-03-01T10:30:32;0.30;99.90
38458;DHT22;24239;48.058;10.486;2023-03-01T10:32:59;0.40;99.90
38458;DHT22;24239;48.058;10.486;2023-03-01T10:35:28;0.50;99.90
38458;DHT22;24239;48.058;10.486;2023-03-01T10:38:07;0.70;99.90
38458;DHT22;24239;48.058;10.486;2023-03-01T10:40:50;0.40;99.90
38458;DHT22;24239;48.058;10.486;2023-03-01T10:43:16;0.40;99.90
38458;DHT22;24239;48.058;10.486;2023-03-01T10:45:50;0.50;99.90
38458;DHT22;24239;48.058;10.486;2023-03-01T10:50:45;0.90;99.90
38458;DHT22;24239;48.058;10.486;2023-03-01T10:55:46;0.60;99.90
38458;DHT22;24239;48.058;10.486;2023-03-01T11:00:57;0.50;99.90
38458;DHT22;24239;48.058;10.486;2023-03-01T11:03:24;0.50;99.90
38458;DHT22;24239;48.058;10.486;2023-03-01T11:05:51;0.50;99.90
38458;DHT22;24239;48.058;10.486;2023-03-01T11:08:28;0.50;99.90
38458;DHT22;24239;48.058;10.486;2023-03-01T11:11:03;0.50;99.90
38458;DHT22;24239;48.058;10.486;2023-03-01T11:13:29;0.80;99.90
38458;DHT22;24239;48.058;10.486;2023-03-01T11:16:02;1.00;99.90
38458;DHT22;24239;48.058;10.486;2023-03-01T11:18:38;0.70;99.90
38458;DHT22;24239;48.058;10.486;2023-03-01T11:21:04;0.90;99.90
38458;DHT22;24239;48.058;10.486;2023-03-01T11:23:30;0.90;99.90
38458;DHT22;24239;48.058;10.486;2023-03-01T11:26:05;0.80;99.90
38458;DHT22;24239;48.058;10.486;2023-03-01T11:28:33;0.80;99.90
38458;DHT22;24239;48.058;10.486;2023-03-01T11:31:01;0.90;99.90
38458;DHT22;24239;48.058;10.486;2023-03-01T11:33:38;0.80;99.90
38458;DHT22;24239;48.058;10.486;2023-03-01T11:38:50;0.90;99.90
38458;DHT22;24239;48.058;10.486;2023-03-01T12:10:52;1.40;99.90
38458;DHT22;24239;48.058;10.486;2023-03-01T12:20:58;1.60;99.90
38458;DHT22;24239;48.058;10.486;2023-03-01T12:28:36;1.70;99.90
38458;DHT22;24239;48.058;10.486;2023-03-01T12:41:27;1.60;99.90
38458;DHT22;24239;48.058;10.486;2023-03-01T12:44:01;1.70;99.90
38458;DHT22;24239;48.058;10.486;2023-03-01T12:46:39;1.60;99.90
38458;DHT22;24239;48.058;10.486;2023-03-01T12:49:17;1.70;99.90
38458;DHT22;24239;48.058;10.486;2023-03-01T12:51:50;1.70;99.90
38458;DHT22;24239;48.058;10.486;2023-03-01T12:54:22;2.10;99.90
38458;DHT22;24239;48.058;10.486;2023-03-01T12:56:50;1.60;99.90
38458;DHT22;24239;48.058;10.486;2023-03-01T12:59:30;1.50;99.90
38458;DHT22;24239;48.058;10.486;2023-03-01T13:05:00;1.90;99.90
38458;DHT22;24239;48.058;10.486;2023-03-01T13:33:53;4.20;99.90
38458;DHT22;24239;48.058;10.486;2023-03-01T13:46:52;4.00;99.90
38458;DHT22;24239;48.058;10.486;2023-03-01T13:49:20;4.00;99.90
38458;DHT22;24239;48.058;10.486;2023-03-01T13:51:47;4.10;99.90
38458;DHT22;24239;48.058;10.486;2023-03-01T13:54:14;4.00;99.90
38458;DHT22;24239;48.058;10.486;2023-03-01T13:56:42;4.10;99.90
38458;DHT22;24239;48.058;10.486;2023-03-01T13:59:17;4.20;99.90
38458;DHT22;24239;48.058;10.486;2023-03-01T14:01:42;4.10;99.90
38458;DHT22;24239;48.058;10.486;2023-03-01T14:04:28;4.20;99.90
38458;DHT22;24239;48.058;10.486;2023-03-01T14:09:37;4.20;99.90
38458;DHT22;24239;48.058;10.486;2023-03-01T14:15:02;4.40;99.90
38458;DHT22;24239;48.058;10.486;2023-03-01T14:20:26;4.30;99.90
38458;DHT22;24239;48.058;10.486;2023-03-01T14:22:53;4.30;99.90
38458;DHT22;24239;48.058;10.486;2023-03-01T14:25:39;4.30;99.90
38458;DHT22;24239;48.058;10.486;2023-03-01T14:28:23;4.10;99.90
38458;DHT22;24239;48.058;10.486;2023-03-01T14:30:50;4.30;99.90
38458;DHT22;24239;48.058;10.486;2023-03-01T14:33:26;4.00;99.90
38458;DHT22;24239;48.058;10.486;2023-03-01T14:35:55;4.00;99.90
38458;DHT22;24239;48.058;10.486;2023-03-01T14:38:22;3.90;99.90
38458;DHT22;24239;48.058;10.486;2023-03-01T14:40:48;3.80;99.90
38458;DHT22;24239;48.058;10.486;2023-03-01T14:43:17;3.60;99.90
38458;DHT22;24239;48.058;10.486;2023-03-01T14:45:49;3.50;99.90
38458;DHT22;24239;48.058;10.486;2023-03-01T14:48:15;3.50;99.90
38458;DHT22;24239;48.058;10.486;2023-03-01T14:50:42;3.60;99.90
38458;DHT22;24239;48.058;10.486;2023-03-01T14:53:15;3.40;99.90
38458;DHT22;24239;48.058;10.486;2023-03-01T14:55:44;3.60;99.90
38458;DHT22;24239;48.058;10.486;2023-03-01T14:58:14;3.50;99.90
38458;DHT22;24239;48.058;10.486;2023-03-01T15:00:43;3.70;99.90
38458;DHT22;24239;48.058;10.486;2023-03-01T15:03:17;3.70;99.90
38458;DHT22;24239;48.058;10.486;2023-03-01T15:05:46;3.60;99.90
38458;DHT22;24239;48.058;10.486;2023-03-01T15:08:19;3.80;99.90
38458;DHT22;24239;48.058;10.486;2023-03-01T15:13:43;3.90;99.90
38458;DHT22;24239;48.058;10.486;2023-03-01T15:16:15;3.90;99.90
38458;DHT22;24239;48.058;10.486;2023-03-01T15:18:46;4.00;99.90
38458;DHT22;24239;48.058;10.486;2023-03-01T15:21:16;4.10;99.90
38458;DHT22;24239;48.058;10.486;2023-03-01T15:23:47;4.00;99.90
38458;DHT22;24239;48.058;10.486;2023-03-01T15:26:57;3.80;99.90
38458;DHT22;24239;48.058;10.486;2023-03-01T15:29:03;3.90;99.90
38458;DHT22;24239;48.058;10.486;2023-03-01T15:31:36;3.90;99.90
38458;DHT22;24239;48.058;10.486;2023-03-01T15:34:07;3.80;99.90
38458;DHT22;24239;48.058;10.486;2023-03-01T15:39:02;4.00;99.90
38458;DHT22;24239;48.058;10.486;2023-03-01T15:41:38;4.00;99.90
38458;DHT22;24239;48.058;10.486;2023-03-01T15:44:15;3.90;99.90
38458;DHT22;24239;48.058;10.486;2023-03-01T15:46:44;3.90;99.90
38458;DHT22;24239;48.058;10.486;2023-03-01T15:49:25;3.80;99.90
38458;DHT22;24239;48.058;10.486;2023-03-01T15:51:54;3.80;99.90
38458;DHT22;24239;48.058;10.486;2023-03-01T15:54:21;3.90;99.90
38458;DHT22;24239;48.058;10.486;2023-03-01T15:56:47;3.80;99.90
38458;DHT22;24239;48.058;10.486;2023-03-01T15:59:13;3.80;99.90
38458;DHT22;24239;48.058;10.486;2023-03-01T16:01:42;3.80;99.90
38458;DHT22;24239;48.058;10.486;2023-03-01T16:04:09;3.80;99.90
38458;DHT22;24239;48.058;10.486;2023-03-01T16:06:35;3.80;99.90
38458;DHT22;24239;48.058;10.486;2023-03-01T16:09:01;3.70;99.90
38458;DHT22;24239;48.058;10.486;2023-03-01T16:11:28;3.70;99.90
38458;DHT22;24239;48.058;10.486;2023-03-01T16:13:53;3.60;99.90
38458;DHT22;24239;48.058;10.486;2023-03-01T16:16:19;3.70;99.90
38458;DHT22;24239;48.058;10.486;2023-03-01T16:18:46;3.60;99.90
38458;DHT22;24239;48.058;10.486;2023-03-01T16:21:14;3.70;99.90
38458;DHT22;24239;48.058;10.486;2023-03-01T16:23:41;3.60;99.90
38458;DHT22;24239;48.058;10.486;2023-03-01T16:26:10;3.50;99.90
38458;DHT22;24239;48.058;10.486;2023-03-01T16:28:35;3.40;99.90
38458;DHT22;24239;48.058;10.486;2023-03-01T16:31:01;3.40;99.90
38458;DHT22;24239;48.058;10.486;2023-03-01T16:33:27;3.20;99.90
38458;DHT22;24239;48.058;10.486;2023-03-01T16:35:52;3.00;99.90
38458;DHT22;24239;48.058;10.486;2023-03-01T16:38:18;3.00;99.90
38458;DHT22;24239;48.058;10.486;2023-03-01T16:40:48;2.80;99.90
38458;DHT22;24239;48.058;10.486;2023-03-01T16:43:14;2.70;99.90
38458;DHT22;24239;48.058;10.486;2023-03-01T16:45:40;2.60;99.90
38458;DHT22;24239;48.058;10.486;2023-03-01T16:48:10;2.50;99.90
38458;DHT22;24239;48.058;10.486;2023-03-01T16:50:35;2.30;99.90
38458;DHT22;24239;48.058;10.486;2023-03-01T16:53:01;2.30;99.90
38458;DHT22;24239;48.058;10.486;2023-03-01T16:55:27;2.40;99.90
38458;DHT22;24239;48.058;10.486;2023-03-01T16:57:55;2.10;99.90
38458;DHT22;24239;48.058;10.486;2023-03-01T17:00:21;1.90;99.90
38458;DHT22;24239;48.058;10.486;2023-03-01T17:02:47;1.80;99.90
38458;DHT22;24239;48.058;10.486;2023-03-01T17:05:14;1.70;99.90
38458;DHT22;24239;48.058;10.486;2023-03-01T17:07:40;1.60;99.90
38458;DHT22;24239;48.058;10.486;2023-03-01T17:10:07;1.50;99.90
38458;DHT22;24239;48.058;10.486;2023-03-01T17:12:36;1.40;99.90
38458;DHT22;24239;48.058;10.486;2023-03-01T17:15:03;1.50;99.90
38458;DHT22;24239;48.058;10.486;2023-03-01T17:17:29;1.20;99.90
38458;DHT22;24239;48.058;10.486;2023-03-01T17:20:11;1.20;99.90
38458;DHT22;24239;48.058;10.486;2023-03-01T17:22:37;1.00;99.90
38458;DHT22;24239;48.058;10.486;2023-03-01T17:25:03;0.90;99.90
38458;DHT22;24239;48.058;10.486;2023-03-01T17:27:29;0.80;99.90
38458;DHT22;24239;48.058;10.486;2023-03-01T17:29:59;0.80;99.90
38458;DHT22;24239;48.058;10.486;2023-03-01T17:32:25;0.70;99.90
38458;DHT22;24239;48.058;10.486;2023-03-01T17:34:52;0.50;99.90
38458;DHT22;24239;48.058;10.486;2023-03-01T17:37:18;0.30;99.90
38458;DHT22;24239;48.058;10.486;2023-03-01T17:39:44;0.20;99.90
38458;DHT22;24239;48.058;10.486;2023-03-01T17:42:09;0.20;99.90
38458;DHT22;24239;48.058;10.486;2023-03-01T17:44:35;0.00;99.90
38458;DHT22;24239;48.058;10.486;2023-03-01T17:47:02;-0.10;99.90
38458;DHT22;24239;48.058;10.486;2023-03-01T17:49:29;-0.20;99.90
38458;DHT22;24239;48.058;10.486;2023-03-01T17:51:55;-0.30;99.90
38458;DHT22;24239;48.058;10.486;2023-03-01T17:54:21;-0.40;99.90
38458;DHT22;24239;48.058;10.486;2023-03-01T17:56:52;-0.50;99.90
38458;DHT22;24239;48.058;10.486;2023-03-01T17:59:20;-0.50;99.90
38458;DHT22;24239;48.058;10.486;2023-03-01T18:01:46;-0.60;99.90
38458;DHT22;24239;48.058;10.486;2023-03-01T18:04:12;-0.70;99.90
38458;DHT22;24239;48.058;10.486;2023-03-01T18:06:38;-0.80;99.90
38458;DHT22;24239;48.058;10.486;2023-03-01T18:09:05;-0.80;99.90
38458;DHT22;24239;48.058;10.486;2023-03-01T18:11:32;-0.90;99.90
38458;DHT22;24239;48.058;10.486;2023-03-01T18:13:58;-1.00;99.90
38458;DHT22;24239;48.058;10.486;2023-03-01T18:16:24;-0.90;99.90
38458;DHT22;24239;48.058;10.486;2023-03-01T18:18:56;-1.10;99.90
38458;DHT22;24239;48.058;10.486;2023-03-01T18:21:22;-1.20;99.90
38458;DHT22;24239;48.058;10.486;2023-03-01T18:23:48;-1.20;99.90
38458;DHT22;24239;48.058;10.486;2023-03-01T18:26:14;-1.10;99.90
38458;DHT22;24239;48.058;10.486;2023-03-01T18:28:44;-1.20;99.90
38458;DHT22;24239;48.058;10.486;2023-03-01T18:31:14;-1.20;99.90
38458;DHT22;24239;48.058;10.486;2023-03-01T18:33:46;-1.20;99.90
38458;DHT22;24239;48.058;10.486;2023-03-01T18:36:22;-1.10;99.90
38458;DHT22;24239;48.058;10.486;2023-03-01T18:38:52;-1.10;99.90
38458;DHT22;24239;48.058;10.486;2023-03-01T18:41:20;-1.00;99.90
38458;DHT22;24239;48.058;10.486;2023-03-01T18:43:46;-1.00;99.90
38458;DHT22;24239;48.058;10.486;2023-03-01T18:46:13;-0.90;99.90
38458;DHT22;24239;48.058;10.486;2023-03-01T18:48:38;-0.80;99.90
38458;DHT22;24239;48.058;10.486;2023-03-01T18:51:12;-0.70;99.90
38458;DHT22;24239;48.058;10.486;2023-03-01T18:53:40;-0.70;99.90
38458;DHT22;24239;48.058;10.486;2023-03-01T18:56:07;-0.50;99.90
38458;DHT22;24239;48.058;10.486;2023-03-01T18:58:33;-0.60;99.90
38458;DHT22;24239;48.058;10.486;2023-03-01T19:00:59;-0.60;99.90
38458;DHT22;24239;48.058;10.486;2023-03-01T19:03:26;-0.70;99.90
38458;DHT22;24239;48.058;10.486;2023-03-01T19:05:53;-0.90;99.90
38458;DHT22;24239;48.058;10.486;2023-03-01T19:08:19;-0.90;99.90
38458;DHT22;24239;48.058;10.486;2023-03-01T19:10:53;-1.00;99.90
38458;DHT22;24239;48.058;10.486;2023-03-01T19:13:21;-1.20;99.90
38458;DHT22;24239;48.058;10.486;2023-03-01T19:15:47;-1.20;99.90
38458;DHT22;24239;48.058;10.486;2023-03-01T19:18:13;-1.20;99.90
38458;DHT22;24239;48.058;10.486;2023-03-01T19:20:38;-1.30;99.90
38458;DHT22;24239;48.058;10.486;2023-03-01T19:23:04;-1.30;99.90
38458;DHT22;24239;48.058;10.486;2023-03-01T19:25:29;-1.40;99.90
38458;DHT22;24239;48.058;10.486;2023-03-01T19:27:55;-1.50;99.90
38458;DHT22;24239;48.058;10.486;2023-03-01T19:30:21;-1.60;99.90
38458;DHT22;24239;48.058;10.486;2023-03-01T19:32:49;-1.60;99.90
38458;DHT22;24239;48.058;10.486;2023-03-01T19:35:16;-1.70;99.90
38458;DHT22;24239;48.058;10.486;2023-03-01T19:37:42;-1.80;99.90
38458;DHT22;24239;48.058;10.486;2023-03-01T19:40:08;-1.70;99.90
38458;DHT22;24239;48.058;10.486;2023-03-01T19:42:34;-1.80;99.90
38458;DHT22;24239;48.058;10.486;2023-03-01T19:44:59;-2.00;99.90
38458;DHT22;24239;48.058;10.486;2023-03-01T19:47:25;-1.80;99.90
38458;DHT22;24239;48.058;10.486;2023-03-01T19:49:51;-1.90;99.90
38458;DHT22;24239;48.058;10.486;2023-03-01T19:52:17;-2.10;99.90
38458;DHT22;24239;48.058;10.486;2023-03-01T19:54:45;-2.00;99.90
38458;DHT22;24239;48.058;10.486;2023-03-01T19:57:11;-2.10;99.90
38458;DHT22;24239;48.058;10.486;2023-03-01T19:59:37;-2.10;99.90
38458;DHT22;24239;48.058;10.486;2023-03-01T20:02:07;-2.10;99.90
38458;DHT22;24239;48.058;10.486;2023-03-01T20:04:33;-2.10;99.90
38458;DHT22;24239;48.058;10.486;2023-03-01T20:06:59;-2.20;99.90
38458;DHT22;24239;48.058;10.486;2023-03-01T20:09:25;-2.20;99.90
38458;DHT22;24239;48.058;10.486;2023-03-01T20:11:50;-2.10;99.90
38458;DHT22;24239;48.058;10.486;2023-03-01T20:14:16;-2.20;99.90
38458;DHT22;24239;48.058;10.486;2023-03-01T20:16:42;-2.20;99.90
38458;DHT22;24239;48.058;10.486;2023-03-01T20:19:08;-2.30;99.90
38458;DHT22;24239;48.058;10.486;2023-03-01T20:21:34;-2.20;99.90
38458;DHT22;24239;48.058;10.486;2023-03-01T20:24:00;-2.20;99.90
38458;DHT22;24239;48.058;10.486;2023-03-01T20:26:26;-2.10;99.90
38458;DHT22;24239;48.058;10.486;2023-03-01T20:28:53;-2.30;99.90
38458;DHT22;24239;48.058;10.486;2023-03-01T20:31:20;-2.30;99.90
38458;DHT22;24239;48.058;10.486;2023-03-01T20:33:46;-2.30;99.90
38458;DHT22;24239;48.058;10.486;2023-03-01T20:36:12;-2.30;99.90
38458;DHT22;24239;48.058;10.486;2023-03-01T20:38:38;-2.30;99.90
38458;DHT22;24239;48.058;10.486;2023-03-01T20:41:05;-2.30;99.90
38458;DHT22;24239;48.058;10.486;2023-03-01T20:43:31;-2.40;99.90
38458;DHT22;24239;48.058;10.486;2023-03-01T20:45:57;-2.40;99.90
38458;DHT22;24239;48.058;10.486;2023-03-01T20:48:23;-2.20;99.90
38458;DHT22;24239;48.058;10.486;2023-03-01T20:50:49;-2.30;99.90
38458;DHT22;24239;48.058;10.486;2023-03-01T20:53:14;-2.30;99.90
38458;DHT22;24239;48.058;10.486;2023-03-01T20:55:40;-2.40;99.90
38458;DHT22;24239;48.058;10.486;2023-03-01T20:58:06;-2.40;99.90
38458;DHT22;24239;48.058;10.486;2023-03-01T21:00:31;-2.50;99.90
38458;DHT22;24239;48.058;10.486;2023-03-01T21:02:57;-2.20;99.90
38458;DHT22;24239;48.058;10.486;2023-03-01T21:05:23;-2.50;99.90
38458;DHT22;24239;48.058;10.486;2023-03-01T21:07:49;-2.40;99.90
38458;DHT22;24239;48.058;10.486;2023-03-01T21:10:14;-2.50;99.90
38458;DHT22;24239;48.058;10.486;2023-03-01T21:12:40;-2.50;99.90
38458;DHT22;24239;48.058;10.486;2023-03-01T21:15:06;-2.60;99.90
38458;DHT22;24239;48.058;10.486;2023-03-01T21:17:32;-2.60;99.90
38458;DHT22;24239;48.058;10.486;2023-03-01T21:19:57;-2.50;99.90
38458;DHT22;24239;48.058;10.486;2023-03-01T21:22:24;-2.50;99.90
38458;DHT22;24239;48.058;10.486;2023-03-01T21:24:50;-2.30;99.90
38458;DHT22;24239;48.058;10.486;2023-03-01T21:27:16;-2.20;99.90
38458;DHT22;24239;48.058;10.486;2023-03-01T21:29:43;-2.10;99.90
38458;DHT22;24239;48.058;10.486;2023-03-01T21:32:10;-2.10;99.90
38458;DHT22;24239;48.058;10.486;2023-03-01T21:34:36;-1.80;99.90
38458;DHT22;24239;48.058;10.486;2023-03-01T21:37:03;-1.70;99.90